• Join FlightAware (Why Join?)
  • Login
  • US Flag 
08:32PM EDT


 

Airport Tracker/Info


-or-


 

Live Flight TrackerFlight Track Log ✈ FIN666 ✈ 09-Nov-2013 ✈ EKCH / CPH - EFHK / HEL

Flight Track Log - Related Links

Times and Time Zones

All times are in EST time to prevent confusion due to time zone crossing. See the FIN666 flight status page for this flight to view local times or setup timezone preferences in your user account.

Time Position Orientation Groundspeed Altitude Reporting Facility
EST Latitude Longitude Course Direction KTS MPH feet Rate Location/Type
07:23AM 55.8486 13.1329 49° Northeast  Level Estimated
07:24AM 55.9251 13.2931 50° Northeast  Level Estimated
07:25AM 56.0014 13.4539 50° Northeast  Level Estimated
07:26AM 56.0774 13.6154 50° Northeast  Level Estimated
07:27AM 56.1533 13.7775 50° Northeast  Level Estimated
07:28AM 56.2289 13.9403 50° Northeast  Level Estimated
07:29AM 56.3066 14.1087 50° Northeast  Level Estimated
07:30AM 56.3841 14.2778 50° Northeast  Level Estimated
07:31AM 56.4614 14.4475 50° Northeast  Level Estimated
07:32AM 56.5384 14.6179 51° Northeast  Level Estimated
07:33AM 56.6152 14.7891 51° Northeast  Level Estimated
07:34AM 56.6917 14.9609 51° Northeast  Level Estimated
07:35AM 56.7680 15.1334 51° Northeast  Level Estimated
07:36AM 56.8441 15.3067 51° Northeast  Level Estimated
07:37AM 56.9199 15.4806 51° Northeast  Level Estimated
07:38AM 56.9955 15.6552 51° Northeast  Level Estimated
07:39AM 57.0709 15.8306 52° Northeast  Level Estimated
07:40AM 57.1460 16.0066 52° Northeast  Level Estimated
07:41AM 57.2208 16.1834 52° Northeast  Level Estimated
07:42AM 57.2954 16.3609 52° Northeast  Level Estimated
07:43AM 57.3698 16.5391 52° Northeast  Level Estimated
07:44AM 57.4439 16.7181 52° Northeast  Level Estimated
07:45AM 57.5177 16.8977 53° Northeast  Level Estimated
07:46AM 57.5913 17.0781 53° Northeast  Level Estimated
07:47AM 57.6646 17.2592 53° Northeast  Level Estimated
07:48AM 57.7377 17.4411 53° Northeast  Level Estimated
07:49AM 57.8105 17.6237 53° Northeast  Level Estimated
07:50AM 57.8830 17.8070 53° Northeast  Level Estimated
07:51AM 57.9553 17.9911 53° Northeast  Level Estimated
07:52AM 58.0273 18.1759 54° Northeast  Level Estimated
07:53AM 58.0990 18.3614 54° Northeast  Level Estimated
07:54AM 58.1705 18.5477 54° Northeast  Level Estimated
07:55AM 58.2417 18.7348 54° Northeast  Level Estimated
07:56AM 58.3126 18.9226 54° Northeast  Level Estimated
07:57AM 58.3833 19.1111 54° Northeast  Level Estimated
07:58AM 58.4537 19.3004 55° Northeast  Level Estimated
07:59AM 58.5237 19.4905 55° Northeast  Level Estimated
08:00AM 58.5936 19.6813 55° Northeast  Level Estimated
08:01AM 58.6631 19.8729 55° Northeast  Level Estimated
08:02AM 58.7323 20.0652 55° Northeast  Level Estimated
08:03AM 58.8013 20.2583 55° Northeast  Level Estimated
08:04AM 58.8699 20.4522 56° Northeast  Level Estimated
08:05AM 58.9383 20.6469 56° Northeast  Level Estimated
08:06AM 59.0064 20.8423 56° Northeast  Level Estimated
08:07AM 59.0741 21.0385 56° Northeast  Level Estimated
08:08AM 59.1416 21.2355 56° Northeast  Level Estimated
08:09AM 59.2088 21.4332 56° Northeast  Level Estimated
08:10AM 59.2757 21.6317 57° Northeast  Level Estimated
08:11AM 59.3423 21.8310 57° Northeast  Level Estimated
08:12AM 59.4085 22.0311 57° Northeast  Level Estimated
08:13AM 59.4745 22.2320 57° Northeast  Level Estimated
08:14AM 59.5402 22.4336 57° Northeast  Level Estimated
08:15AM 59.6055 22.6360 57° Northeast  Level Estimated
08:16AM 59.6705 22.8393 58° Northeast  Level Estimated
08:17AM 59.7352 23.0433 58° Northeast  Level Estimated
08:18AM 59.7996 23.2481 58° Northeast  Level Estimated
08:19AM 59.8637 23.4537 58° Northeast  Level Estimated
08:20AM 59.9275 23.6600 58° Northeast  Level Estimated
08:21AM 59.9909 23.8672 58° Northeast  Level Estimated
08:22AM 60.0540 24.0752 59° Northeast  Level Estimated
08:23AM 60.1168 24.2840 59° Northeast  Level Estimated
08:24AM 60.1793 24.4935 59° Northeast  Level Estimated
08:25AM 60.2465 24.7211 59° Northeast  Level Estimated
08:26AM 60.3133 24.9497 59° Northeast  Level Estimated
08:27AM 60.3172 24.9633 60° Northeast  Level Estimated
08:28AM 60.3172 24.9633 37° Northeast  Level Estimated
08:29AM 60.3172 24.9633 37° Northeast  Level Estimated
08:30AM 60.3172 24.9633 37° Northeast  Level Estimated
08:31AM 60.3172 24.9633 37° Northeast  Level Estimated
08:32AM 60.3172 24.9633 37° Northeast  Level Estimated
08:33AM 60.3172 24.9633 37° Northeast  Level Estimated
08:34AM 60.3172 24.9633 37° Northeast  Level Estimated
08:35AM 60.3172 24.9633 37° Northeast  Level Estimated
08:36AM 60.3172 24.9633 37° Northeast  Level Estimated
08:37AM 60.3172 24.9633 37° Northeast  Level Estimated